createdAt,value
2019-02-19T00:00:39.050Z,0
2019-02-19T00:01:47.149Z,0
2019-02-19T00:02:55.157Z,0
2019-02-19T00:04:03.217Z,0
2019-02-19T00:05:11.255Z,0
2019-02-19T00:06:19.318Z,0
2019-02-19T00:07:27.356Z,0
2019-02-19T00:08:35.424Z,0
2019-02-19T00:09:43.488Z,0
2019-02-19T00:10:51.506Z,0
2019-02-19T00:11:59.583Z,0
2019-02-19T00:13:07.632Z,0
2019-02-19T00:14:15.688Z,0
2019-02-19T00:15:23.749Z,0
2019-02-19T00:16:31.778Z,0
2019-02-19T00:17:39.861Z,0
2019-02-19T00:18:47.892Z,0
2019-02-19T00:19:55.941Z,0
2019-02-19T00:21:04.032Z,0
2019-02-19T00:22:12.031Z,0
2019-02-19T00:23:20.088Z,0
2019-02-19T00:24:28.153Z,0
2019-02-19T00:25:36.214Z,0
2019-02-19T00:26:44.252Z,0
2019-02-19T00:27:52.283Z,0
2019-02-19T00:29:00.361Z,0
2019-02-19T00:30:08.417Z,0
2019-02-19T00:31:16.467Z,0
2019-02-19T00:32:24.526Z,0
2019-02-19T00:33:32.572Z,0
2019-02-19T00:34:40.636Z,0
2019-02-19T00:35:48.673Z,0
2019-02-19T00:36:56.753Z,0
2019-02-19T00:38:06.322Z,0
2019-02-19T00:39:12.834Z,0
2019-02-19T00:40:20.890Z,0
2019-02-19T00:41:29.822Z,0
2019-02-19T00:42:36.993Z,0
2019-02-19T00:43:45.042Z,0
2019-02-19T00:44:53.086Z,0
2019-02-19T00:46:01.167Z,0
2019-02-19T00:47:09.214Z,0
2019-02-19T00:48:17.255Z,0
2019-02-19T00:49:25.356Z,0
2019-02-19T00:50:33.359Z,0
2019-02-19T00:51:41.405Z,0
2019-02-19T00:52:49.471Z,0
2019-02-19T00:53:57.512Z,0
2019-02-19T00:55:05.569Z,0
2019-02-19T00:56:13.637Z,0
2019-02-19T00:57:21.690Z,0
2019-02-19T00:58:29.717Z,0
2019-02-19T00:59:37.783Z,0
2019-02-19T01:00:45.829Z,0
2019-02-19T01:01:53.875Z,0
2019-02-19T01:03:01.925Z,0
2019-02-19T01:04:09.979Z,0
2019-02-19T01:05:18.033Z,0
2019-02-19T01:06:26.097Z,0
2019-02-19T01:07:34.146Z,0
2019-02-19T01:08:42.161Z,0
2019-02-19T01:09:50.238Z,0
2019-02-19T01:10:58.286Z,0
2019-02-19T01:12:06.351Z,0
2019-02-19T01:13:14.400Z,0
2019-02-19T01:14:22.442Z,0
2019-02-19T01:15:30.508Z,0
2019-02-19T01:16:38.565Z,0
2019-02-19T01:17:46.607Z,0
2019-02-19T01:18:54.663Z,0
2019-02-19T01:20:02.716Z,0
2019-02-19T01:21:10.768Z,0
2019-02-19T01:22:18.823Z,0
2019-02-19T01:23:26.860Z,0
2019-02-19T01:24:34.924Z,0
2019-02-19T01:25:42.976Z,0
2019-02-19T01:26:51.029Z,0
2019-02-19T01:27:59.083Z,0
2019-02-19T01:29:07.167Z,0
2019-02-19T01:30:15.169Z,0
2019-02-19T01:31:23.248Z,0
2019-02-19T01:32:31.277Z,0
2019-02-19T01:33:39.348Z,0
2019-02-19T01:34:47.389Z,0
2019-02-19T01:35:55.450Z,0
2019-02-19T01:37:03.518Z,0
2019-02-19T01:38:11.558Z,0
2019-02-19T01:39:19.606Z,0
2019-02-19T01:40:27.666Z,0
2019-02-19T01:41:35.714Z,0
2019-02-19T01:42:43.785Z,0
2019-02-19T01:43:51.802Z,0
2019-02-19T01:44:59.905Z,0
2019-02-19T01:46:07.924Z,0
2019-02-19T01:47:15.980Z,0
2019-02-19T01:48:24.020Z,0
2019-02-19T01:49:32.071Z,0
2019-02-19T01:50:40.144Z,0
2019-02-19T01:51:48.181Z,0
2019-02-19T01:52:56.266Z,0
2019-02-19T01:54:04.282Z,0
2019-02-19T01:55:12.329Z,0
2019-02-19T01:56:20.389Z,0
2019-02-19T01:57:28.534Z,0
2019-02-19T01:58:36.499Z,0
2019-02-19T01:59:44.558Z,0
2019-02-19T02:00:52.640Z,0
2019-02-19T02:02:01.500Z,0
2019-02-19T02:03:08.716Z,0
2019-02-19T02:04:16.762Z,0
2019-02-19T02:05:24.805Z,0
2019-02-19T02:06:32.865Z,0
2019-02-19T02:07:40.919Z,0
2019-02-19T02:08:48.958Z,0
2019-02-19T02:09:57.028Z,0
2019-02-19T02:11:05.065Z,0
2019-02-19T02:12:13.127Z,0
2019-02-19T02:13:21.170Z,0
2019-02-19T02:14:29.226Z,0
2019-02-19T02:15:42.590Z,0
2019-02-19T02:16:45.377Z,0
2019-02-19T02:17:53.390Z,0
2019-02-19T02:19:01.426Z,0
2019-02-19T02:20:09.485Z,0
2019-02-19T02:21:17.539Z,0
2019-02-19T02:22:25.589Z,0
2019-02-19T02:23:33.690Z,0
2019-02-19T02:24:41.679Z,0
2019-02-19T02:25:49.751Z,0
2019-02-19T02:26:57.785Z,0
2019-02-19T02:28:05.845Z,0
2019-02-19T02:29:13.906Z,0
2019-02-19T02:30:21.940Z,0
2019-02-19T02:31:30.008Z,0
2019-02-19T02:32:38.048Z,0
2019-02-19T02:33:46.117Z,0
2019-02-19T02:34:54.168Z,0
2019-02-19T02:36:02.196Z,0
2019-02-19T02:37:10.262Z,0
2019-02-19T02:38:18.347Z,0
2019-02-19T02:39:26.361Z,0
2019-02-19T02:40:34.425Z,0
2019-02-19T02:41:42.494Z,0
2019-02-19T02:42:50.526Z,0
2019-02-19T02:43:58.572Z,0
2019-02-19T02:45:06.640Z,0
2019-02-19T02:46:14.677Z,0
2019-02-19T02:47:22.731Z,0
2019-02-19T02:48:30.789Z,0
2019-02-19T02:49:38.853Z,0
2019-02-19T02:50:46.907Z,0
2019-02-19T02:51:54.940Z,0
2019-02-19T02:53:03.018Z,0
2019-02-19T02:54:11.044Z,0
2019-02-19T02:55:19.094Z,0
2019-02-19T02:56:27.147Z,0
2019-02-19T02:57:35.203Z,0
2019-02-19T02:58:43.258Z,0
2019-02-19T02:59:51.301Z,0
2019-02-19T03:00:59.360Z,0
2019-02-19T03:02:07.413Z,0
2019-02-19T03:03:15.464Z,0
2019-02-19T03:04:23.499Z,0
2019-02-19T03:05:31.546Z,0
2019-02-19T03:06:39.645Z,0
2019-02-19T03:07:47.673Z,0
2019-02-19T03:08:55.726Z,0
2019-02-19T03:10:03.778Z,0
2019-02-19T03:11:11.810Z,0
2019-02-19T03:12:19.880Z,0
2019-02-19T03:13:27.942Z,0
2019-02-19T03:14:35.992Z,0
2019-02-19T03:15:44.031Z,0
2019-02-19T03:16:52.058Z,0
2019-02-19T03:18:00.128Z,0
2019-02-19T03:19:08.200Z,0
2019-02-19T03:20:16.239Z,0
2019-02-19T03:21:24.300Z,0
2019-02-19T03:22:32.318Z,0
2019-02-19T03:23:40.390Z,0
2019-02-19T03:24:48.454Z,0
2019-02-19T03:25:56.498Z,0
2019-02-19T03:27:04.552Z,0
2019-02-19T03:28:12.635Z,0
2019-02-19T03:29:20.668Z,0
2019-02-19T03:30:28.723Z,0
2019-02-19T03:31:36.774Z,0
2019-02-19T03:32:44.822Z,0
2019-02-19T03:33:52.857Z,0
2019-02-19T03:35:00.922Z,0
2019-02-19T03:36:08.970Z,0
2019-02-19T03:37:17.029Z,0
2019-02-19T03:38:25.075Z,0
2019-02-19T03:39:33.129Z,0
2019-02-19T03:40:41.178Z,0
2019-02-19T03:41:49.239Z,0
2019-02-19T03:42:57.273Z,0
2019-02-19T03:44:05.328Z,0
2019-02-19T03:45:13.390Z,0
2019-02-19T03:46:21.418Z,0
2019-02-19T03:47:29.483Z,0
2019-02-19T03:48:37.565Z,0
2019-02-19T03:49:45.580Z,0
2019-02-19T03:50:53.656Z,0
2019-02-19T03:52:01.681Z,0
2019-02-19T03:53:09.757Z,0
2019-02-19T03:54:17.800Z,0
2019-02-19T03:55:25.856Z,0
2019-02-19T03:56:33.899Z,0
2019-02-19T03:57:41.935Z,0
2019-02-19T03:58:50.016Z,0
2019-02-19T03:59:58.094Z,0
2019-02-19T04:01:06.114Z,0
2019-02-19T04:02:14.168Z,0
2019-02-19T04:03:22.227Z,0
2019-02-19T04:04:30.264Z,0
2019-02-19T04:05:38.329Z,0
2019-02-19T04:06:46.378Z,0
2019-02-19T04:07:54.431Z,0
2019-02-19T04:09:02.472Z,0
2019-02-19T04:10:10.573Z,0
2019-02-19T04:11:18.580Z,0
2019-02-19T04:12:26.638Z,0
2019-02-19T04:13:34.684Z,0
2019-02-19T04:14:42.746Z,0
2019-02-19T04:15:50.803Z,0
2019-02-19T04:16:58.854Z,0
2019-02-19T04:18:06.907Z,0
2019-02-19T04:19:14.972Z,0
2019-02-19T04:20:23.007Z,0
2019-02-19T04:21:31.063Z,0
2019-02-19T04:22:39.102Z,0
2019-02-19T04:23:47.181Z,0
2019-02-19T04:24:55.209Z,0
2019-02-19T04:26:03.262Z,0
2019-02-19T04:27:11.304Z,0
2019-02-19T04:28:19.379Z,0
2019-02-19T04:29:27.421Z,0
2019-02-19T04:30:35.472Z,0
2019-02-19T04:31:43.544Z,0
2019-02-19T04:32:51.560Z,0
2019-02-19T04:33:59.632Z,0
2019-02-19T04:35:07.692Z,0
2019-02-19T04:36:15.741Z,0
2019-02-19T04:37:23.790Z,0
2019-02-19T04:38:31.863Z,0
2019-02-19T04:39:39.911Z,0
2019-02-19T04:40:47.944Z,0
2019-02-19T04:41:55.997Z,0
2019-02-19T04:43:04.044Z,0
2019-02-19T04:44:12.084Z,0
2019-02-19T04:45:20.167Z,0
2019-02-19T04:46:31.410Z,0
2019-02-19T04:47:36.263Z,0
2019-02-19T04:48:44.311Z,0
2019-02-19T04:49:52.371Z,0
2019-02-19T04:51:00.431Z,0
2019-02-19T04:52:08.464Z,0
2019-02-19T04:53:16.536Z,0
2019-02-19T04:54:24.572Z,0
2019-02-19T04:55:32.643Z,0
2019-02-19T04:56:40.678Z,0
2019-02-19T04:57:48.738Z,0
2019-02-19T04:58:56.796Z,0
2019-02-19T05:00:04.861Z,0
2019-02-19T05:01:12.885Z,0
2019-02-19T05:02:20.945Z,0
2019-02-19T05:03:28.993Z,0
2019-02-19T05:04:37.067Z,0
2019-02-19T05:05:45.862Z,0
2019-02-19T05:06:53.198Z,0
2019-02-19T05:08:01.513Z,0
2019-02-19T05:09:09.250Z,0
2019-02-19T05:10:17.325Z,0
2019-02-19T05:11:25.370Z,0
2019-02-19T05:12:33.443Z,0
2019-02-19T05:13:41.457Z,0
2019-02-19T05:14:49.538Z,0
2019-02-19T05:15:57.632Z,0
2019-02-19T05:17:05.635Z,0
2019-02-19T05:18:13.684Z,0
2019-02-19T05:19:21.702Z,0
2019-02-19T05:20:30.901Z,0
2019-02-19T05:21:37.831Z,0
2019-02-19T05:22:45.884Z,0
2019-02-19T05:23:53.954Z,0
2019-02-19T05:25:02.000Z,0
2019-02-19T05:26:10.060Z,0
2019-02-19T05:27:18.093Z,0
2019-02-19T05:28:26.648Z,0
2019-02-19T05:29:34.209Z,0
2019-02-19T05:30:43.074Z,0
2019-02-19T05:31:50.403Z,0
2019-02-19T05:32:58.413Z,0
2019-02-19T05:34:06.655Z,0
2019-02-19T05:35:14.502Z,0
2019-02-19T05:36:22.916Z,0
2019-02-19T05:37:30.590Z,0
2019-02-19T05:38:38.629Z,0
2019-02-19T05:39:46.683Z,0
2019-02-19T05:40:54.754Z,0
2019-02-19T05:42:02.785Z,0
2019-02-19T05:43:10.841Z,0
2019-02-19T05:44:18.900Z,0
2019-02-19T05:45:26.951Z,0
2019-02-19T05:46:35.005Z,0
2019-02-19T05:47:43.118Z,0
2019-02-19T05:48:51.115Z,0
2019-02-19T05:49:59.157Z,0
2019-02-19T05:51:07.204Z,0
2019-02-19T05:52:15.275Z,0
2019-02-19T05:53:23.348Z,4
2019-02-19T05:54:31.405Z,0
2019-02-19T05:55:39.443Z,4
2019-02-19T05:56:47.493Z,4
2019-02-19T05:57:55.651Z,4
2019-02-19T05:59:03.589Z,8
2019-02-19T06:00:11.620Z,4
2019-02-19T06:01:19.692Z,8
2019-02-19T06:02:27.881Z,12
2019-02-19T06:03:36.119Z,12
2019-02-19T06:04:44.141Z,16
2019-02-19T06:05:52.398Z,20
2019-02-19T06:06:59.964Z,24
2019-02-19T06:08:08.013Z,28
2019-02-19T06:09:16.083Z,36
2019-02-19T06:10:24.119Z,44
2019-02-19T06:11:32.252Z,52
2019-02-19T06:12:40.220Z,64
2019-02-19T06:13:48.282Z,76
2019-02-19T06:14:56.334Z,92
2019-02-19T06:16:04.387Z,104
2019-02-19T06:17:12.476Z,120
2019-02-19T06:18:20.472Z,140
2019-02-19T06:19:28.541Z,160
2019-02-19T06:20:36.588Z,180
2019-02-19T06:21:44.654Z,196
2019-02-19T06:22:52.687Z,216
2019-02-19T06:24:00.767Z,244
2019-02-19T06:25:08.837Z,272
2019-02-19T06:26:16.843Z,308
2019-02-19T06:27:24.898Z,340
2019-02-19T06:28:32.979Z,376
2019-02-19T06:29:40.993Z,416
2019-02-19T06:30:49.092Z,460
2019-02-19T06:31:57.124Z,504
2019-02-19T06:33:05.161Z,560
2019-02-19T06:34:14.294Z,636
2019-02-19T06:35:21.290Z,700
2019-02-19T06:36:29.809Z,748
2019-02-19T06:37:37.393Z,792
2019-02-19T06:38:45.420Z,836
2019-02-19T06:39:53.494Z,880
2019-02-19T06:41:02.059Z,912
2019-02-19T06:42:09.581Z,948
2019-02-19T06:43:17.647Z,984
2019-02-19T06:44:25.691Z,1044
2019-02-19T06:45:33.754Z,1092
2019-02-19T06:46:41.783Z,1136
2019-02-19T06:47:49.866Z,1204
2019-02-19T06:48:57.907Z,1292
2019-02-19T06:50:06.002Z,1380
2019-02-19T06:51:14.009Z,1464
2019-02-19T06:52:22.049Z,1544
2019-02-19T06:53:30.119Z,1624
2019-02-19T06:54:38.178Z,1696
2019-02-19T06:55:46.198Z,1776
2019-02-19T06:56:54.258Z,1840
2019-02-19T06:58:02.354Z,1888
2019-02-19T06:59:10.385Z,1912
2019-02-19T07:00:18.424Z,1944
2019-02-19T07:01:26.481Z,2024
2019-02-19T07:02:34.532Z,2136
2019-02-19T07:03:42.582Z,2212
2019-02-19T07:04:50.659Z,2316
2019-02-19T07:05:58.698Z,2548
2019-02-19T07:07:06.738Z,2812
2019-02-19T07:08:14.789Z,2996
2019-02-19T07:09:22.880Z,3104
2019-02-19T07:10:30.896Z,3216
2019-02-19T07:11:38.960Z,3356
2019-02-19T07:12:47.013Z,3448
2019-02-19T07:13:55.089Z,3408
2019-02-19T07:15:03.148Z,3428
2019-02-19T07:16:11.173Z,3368
2019-02-19T07:17:19.232Z,2892
2019-02-19T07:18:27.277Z,2904
2019-02-19T07:19:35.341Z,2936
2019-02-19T07:20:43.390Z,2980
2019-02-19T07:21:51.428Z,3076
2019-02-19T07:22:59.472Z,3172
2019-02-19T07:24:07.537Z,3232
2019-02-19T07:25:15.598Z,3588
2019-02-19T07:26:23.699Z,4140
2019-02-19T07:27:31.671Z,4364
2019-02-19T07:28:39.767Z,4316
2019-02-19T07:29:47.846Z,4228
2019-02-19T07:30:55.873Z,4800
2019-02-19T07:32:03.925Z,4732
2019-02-19T07:33:11.974Z,4816
2019-02-19T07:34:20.025Z,6036
2019-02-19T07:35:28.090Z,6312
2019-02-19T07:36:36.138Z,6612
2019-02-19T07:37:44.197Z,6652
2019-02-19T07:38:52.524Z,6728
2019-02-19T07:40:00.298Z,6256
2019-02-19T07:41:08.354Z,6112
2019-02-19T07:42:16.394Z,7412
2019-02-19T07:43:24.459Z,8164
2019-02-19T07:44:32.549Z,8336
2019-02-19T07:45:40.576Z,8668
2019-02-19T07:46:48.677Z,7828
2019-02-19T07:47:56.689Z,6912
2019-02-19T07:49:04.742Z,7564
2019-02-19T07:50:12.789Z,9136
2019-02-19T07:51:20.829Z,10032
2019-02-19T07:52:28.892Z,10152
2019-02-19T07:53:36.980Z,6468
2019-02-19T07:54:45.026Z,8460
2019-02-19T07:55:53.061Z,9020
2019-02-19T07:57:01.113Z,7580
2019-02-19T07:58:09.181Z,5256
2019-02-19T07:59:17.242Z,4800
2019-02-19T08:00:25.294Z,4860
2019-02-19T08:01:33.342Z,4760
2019-02-19T08:02:41.388Z,4712
2019-02-19T08:03:49.449Z,4652
2019-02-19T08:04:57.511Z,4616
2019-02-19T08:06:05.564Z,4604
2019-02-19T08:07:13.626Z,4636
2019-02-19T08:08:21.670Z,4668
2019-02-19T08:09:29.737Z,4652
2019-02-19T08:10:37.826Z,4668
2019-02-19T08:11:45.849Z,4688
2019-02-19T08:12:53.897Z,4700
2019-02-19T08:14:01.935Z,4720
2019-02-19T08:15:10.008Z,4796
2019-02-19T08:16:19.011Z,4832
2019-02-19T08:17:32.992Z,4896
2019-02-19T08:18:34.222Z,4864
2019-02-19T08:19:42.219Z,4888
2019-02-19T08:20:50.297Z,5052
2019-02-19T08:21:58.369Z,5248
2019-02-19T08:23:06.410Z,5316
2019-02-19T08:24:14.449Z,5316
2019-02-19T08:25:22.513Z,5340
2019-02-19T08:26:30.577Z,5384
2019-02-19T08:27:38.635Z,5436
2019-02-19T08:28:46.696Z,5516
2019-02-19T08:29:54.751Z,5548
2019-02-19T08:31:02.794Z,5520
2019-02-19T08:32:10.866Z,5492
2019-02-19T08:33:18.895Z,5456
2019-02-19T08:34:26.965Z,5364
2019-02-19T08:35:35.024Z,5308
2019-02-19T08:36:43.089Z,5296
2019-02-19T08:37:51.139Z,5240
2019-02-19T08:38:59.195Z,5136
2019-02-19T08:40:07.246Z,5084
2019-02-19T08:41:15.298Z,5052
2019-02-19T08:42:23.357Z,4988
2019-02-19T08:43:31.406Z,4884
2019-02-19T08:44:39.485Z,5024
2019-02-19T08:45:47.576Z,5060
2019-02-19T08:46:55.579Z,5084
2019-02-19T08:48:03.634Z,5064
2019-02-19T08:49:11.681Z,5108
2019-02-19T08:50:19.768Z,5200
2019-02-19T08:51:27.811Z,5204
2019-02-19T08:52:35.855Z,5132
2019-02-19T08:53:43.939Z,5032
2019-02-19T08:54:51.973Z,4960
2019-02-19T08:56:00.059Z,4968
2019-02-19T08:57:08.161Z,4944
2019-02-19T08:58:16.156Z,4988
2019-02-19T08:59:24.194Z,4996
2019-02-19T09:00:32.260Z,5020
2019-02-19T09:01:40.329Z,5080
2019-02-19T09:02:48.382Z,5064
2019-02-19T09:03:56.451Z,5080
2019-02-19T09:05:04.525Z,5096
2019-02-19T09:06:12.540Z,5092
2019-02-19T09:07:20.605Z,5048
2019-02-19T09:08:28.694Z,5020
2019-02-19T09:09:36.723Z,4972
2019-02-19T09:10:44.781Z,5204
2019-02-19T09:11:52.901Z,5272
2019-02-19T09:13:00.890Z,5244
2019-02-19T09:14:08.949Z,5224
2019-02-19T09:15:17.012Z,5236
2019-02-19T09:16:25.065Z,5256
2019-02-19T09:17:33.129Z,5300
2019-02-19T09:18:41.189Z,5456
2019-02-19T09:19:49.260Z,5508
2019-02-19T09:20:57.293Z,5512
2019-02-19T09:22:05.354Z,5524
2019-02-19T09:23:13.411Z,5524
2019-02-19T09:24:21.480Z,5516
2019-02-19T09:25:29.515Z,5448
2019-02-19T09:26:37.581Z,5408
2019-02-19T09:27:45.630Z,5444
2019-02-19T09:28:53.678Z,5480
2019-02-19T09:30:01.780Z,5572
2019-02-19T09:31:09.815Z,5624
2019-02-19T09:32:17.872Z,6052
2019-02-19T09:33:25.928Z,7052
2019-02-19T09:34:33.979Z,8288
2019-02-19T09:35:42.019Z,9208
2019-02-19T09:36:50.128Z,9860
2019-02-19T09:37:58.177Z,9976
2019-02-19T09:39:06.220Z,9860
2019-02-19T09:40:14.285Z,9920
2019-02-19T09:41:22.317Z,10204
2019-02-19T09:42:30.404Z,10572
2019-02-19T09:43:38.492Z,10888
2019-02-19T09:44:46.516Z,10680
2019-02-19T09:45:54.583Z,10432
2019-02-19T09:47:02.626Z,10224
2019-02-19T09:48:10.694Z,9924
2019-02-19T09:49:18.748Z,9648
2019-02-19T09:50:26.801Z,9352
2019-02-19T09:51:34.929Z,8756
2019-02-19T09:52:42.993Z,7988
2019-02-19T09:53:50.983Z,7612
2019-02-19T09:54:59.034Z,7832
2019-02-19T09:56:07.099Z,7868
2019-02-19T09:57:15.166Z,7892
2019-02-19T09:58:23.227Z,7860
2019-02-19T09:59:31.281Z,7796
2019-02-19T10:00:39.353Z,7804
2019-02-19T10:01:47.407Z,7764
2019-02-19T10:02:55.464Z,7880
2019-02-19T10:04:03.538Z,7924
2019-02-19T10:05:11.581Z,7636
2019-02-19T10:06:19.660Z,7484
2019-02-19T10:07:27.715Z,7952
2019-02-19T10:08:35.782Z,8316
2019-02-19T10:09:43.849Z,8348
2019-02-19T10:10:51.880Z,8148
2019-02-19T10:11:59.952Z,7736
2019-02-19T10:13:08.012Z,7488
2019-02-19T10:14:16.091Z,7644
2019-02-19T10:15:24.127Z,8196
2019-02-19T10:16:41.101Z,9240
2019-02-19T10:17:40.246Z,10412
2019-02-19T10:18:48.320Z,11056
2019-02-19T10:19:56.384Z,11332
2019-02-19T10:21:04.432Z,11544
2019-02-19T10:22:12.509Z,11752
2019-02-19T10:23:20.564Z,11732
2019-02-19T10:24:28.606Z,11464
2019-02-19T10:25:36.690Z,10960
2019-02-19T10:26:44.742Z,10532
2019-02-19T10:27:52.810Z,10384
2019-02-19T10:29:00.860Z,10400
2019-02-19T10:30:08.938Z,10392
2019-02-19T10:31:16.989Z,10468
2019-02-19T10:32:25.055Z,10308
2019-02-19T10:33:33.097Z,10080
2019-02-19T10:34:41.154Z,9924
2019-02-19T10:35:49.240Z,9612
2019-02-19T10:36:57.304Z,9132
2019-02-19T10:38:05.358Z,8736
2019-02-19T10:39:13.417Z,8352
2019-02-19T10:40:21.478Z,8092
2019-02-19T10:41:29.548Z,7980
2019-02-19T10:42:37.593Z,7900
2019-02-19T10:43:45.700Z,7864
2019-02-19T10:44:53.716Z,7888
2019-02-19T10:46:01.769Z,7916
2019-02-19T10:47:09.848Z,7828
2019-02-19T10:48:19.134Z,7948
2019-02-19T10:49:25.970Z,8188
2019-02-19T10:50:34.047Z,8184
2019-02-19T10:51:42.727Z,7996
2019-02-19T10:52:51.680Z,7840
2019-02-19T10:53:58.197Z,8328
2019-02-19T10:55:06.264Z,8860
2019-02-19T10:56:14.340Z,8964
2019-02-19T10:57:22.404Z,8440
2019-02-19T10:58:30.494Z,7772
2019-02-19T10:59:38.528Z,7284
2019-02-19T11:00:46.576Z,7108
2019-02-19T11:01:54.653Z,7244
2019-02-19T11:03:02.700Z,7344
2019-02-19T11:04:10.769Z,7344
2019-02-19T11:05:18.830Z,7344
2019-02-19T11:06:26.871Z,7400
2019-02-19T11:07:34.953Z,7576
2019-02-19T11:08:43.017Z,7720
2019-02-19T11:09:51.069Z,8024
2019-02-19T11:10:59.159Z,8208
2019-02-19T11:12:07.196Z,8368
2019-02-19T11:13:15.254Z,8436
2019-02-19T11:14:23.313Z,8408
2019-02-19T11:15:31.363Z,8364
2019-02-19T11:16:39.435Z,8268
2019-02-19T11:17:47.508Z,8260
2019-02-19T11:18:55.566Z,8464
2019-02-19T11:20:03.630Z,8640
2019-02-19T11:21:19.239Z,8520
2019-02-19T11:22:19.751Z,8168
2019-02-19T11:23:27.805Z,7892
2019-02-19T11:24:35.870Z,7872
2019-02-19T11:25:43.943Z,8332
2019-02-19T11:26:52.010Z,8796
2019-02-19T11:28:00.063Z,9192
2019-02-19T11:29:08.122Z,9444
2019-02-19T11:30:16.171Z,9792
2019-02-19T11:31:24.220Z,10064
2019-02-19T11:32:32.274Z,10204
2019-02-19T11:33:40.369Z,9936
2019-02-19T11:34:48.421Z,9516
2019-02-19T11:35:56.475Z,8992
2019-02-19T11:37:04.542Z,8260
2019-02-19T11:38:12.592Z,7600
2019-02-19T11:39:22.482Z,6968
2019-02-19T11:40:28.714Z,6236
2019-02-19T11:41:36.787Z,5780
2019-02-19T11:42:44.842Z,5480
2019-02-19T11:43:52.893Z,5468
2019-02-19T11:45:00.976Z,5048
2019-02-19T11:46:09.026Z,5276
2019-02-19T11:47:17.085Z,5300
2019-02-19T11:48:25.160Z,5348
2019-02-19T11:49:33.215Z,5412
2019-02-19T11:50:41.296Z,5272
2019-02-19T11:51:49.325Z,5168
2019-02-19T11:52:57.396Z,4964
2019-02-19T11:54:05.460Z,4824
2019-02-19T11:55:13.527Z,4712
2019-02-19T11:56:21.623Z,4656
2019-02-19T11:57:29.655Z,4620
2019-02-19T11:58:37.702Z,4548
2019-02-19T11:59:45.766Z,4496
2019-02-19T12:00:53.812Z,4552
2019-02-19T12:02:01.886Z,4504
2019-02-19T12:03:09.933Z,4472
2019-02-19T12:04:17.990Z,4436
2019-02-19T12:05:26.061Z,4400
2019-02-19T12:06:34.109Z,4284
2019-02-19T12:07:42.175Z,4300
2019-02-19T12:08:50.247Z,4388
2019-02-19T12:09:58.344Z,4444
2019-02-19T12:11:06.389Z,4464
2019-02-19T12:12:14.425Z,4524
2019-02-19T12:13:22.486Z,4568
2019-02-19T12:14:30.541Z,4636
2019-02-19T12:15:38.589Z,4724
2019-02-19T12:16:46.677Z,4972
2019-02-19T12:17:54.730Z,5092
2019-02-19T12:19:02.806Z,5216
2019-02-19T12:20:10.882Z,5440
2019-02-19T12:21:18.897Z,5684
2019-02-19T12:22:26.973Z,6072
2019-02-19T12:23:35.031Z,6324
2019-02-19T12:24:43.136Z,6152
2019-02-19T12:25:51.153Z,5980
2019-02-19T12:26:59.225Z,5556
2019-02-19T12:28:07.273Z,5044
2019-02-19T12:29:15.328Z,4648
2019-02-19T12:30:23.384Z,4456
2019-02-19T12:31:31.453Z,4620
2019-02-19T12:32:39.529Z,4924
2019-02-19T12:33:47.577Z,5064
2019-02-19T12:34:55.612Z,5064
2019-02-19T12:36:03.696Z,4840
2019-02-19T12:37:11.742Z,4676
2019-02-19T12:38:19.817Z,4568
2019-02-19T12:39:27.922Z,4560
2019-02-19T12:40:35.930Z,4384
2019-02-19T12:41:44.006Z,4112
2019-02-19T12:42:52.036Z,3944
2019-02-19T12:44:00.106Z,3884
2019-02-19T12:45:08.192Z,3856
2019-02-19T12:46:16.256Z,3836
2019-02-19T12:47:24.310Z,3828
2019-02-19T12:48:32.356Z,3820
2019-02-19T12:49:40.416Z,3820
2019-02-19T12:50:48.474Z,3816
2019-02-19T12:51:56.549Z,3804
2019-02-19T12:53:04.608Z,3792
2019-02-19T12:54:12.675Z,3788
2019-02-19T12:55:20.728Z,3788
2019-02-19T12:56:28.786Z,3780
2019-02-19T12:57:36.935Z,3776
2019-02-19T12:58:44.914Z,3776
2019-02-19T12:59:56.499Z,3780
2019-02-19T13:01:01.033Z,3776
2019-02-19T13:02:09.107Z,3776
2019-02-19T13:03:17.145Z,3772
2019-02-19T13:04:25.197Z,3760
2019-02-19T13:05:33.277Z,3752
2019-02-19T13:06:41.333Z,3744
2019-02-19T13:07:49.395Z,3756
2019-02-19T13:08:57.478Z,3748
2019-02-19T13:10:05.505Z,3748
2019-02-19T13:11:13.610Z,3748
2019-02-19T13:12:21.622Z,3740
2019-02-19T13:13:29.707Z,3732
2019-02-19T13:14:37.756Z,3716
2019-02-19T13:15:45.835Z,3708
2019-02-19T13:16:53.898Z,3704
2019-02-19T13:18:01.937Z,3700
2019-02-19T13:19:10.004Z,3700
2019-02-19T13:20:18.073Z,3696
2019-02-19T13:21:26.120Z,3684
2019-02-19T13:22:34.195Z,3676
2019-02-19T13:23:42.227Z,3672
2019-02-19T13:24:50.292Z,3676
2019-02-19T13:25:58.359Z,3680
2019-02-19T13:27:06.443Z,3672
2019-02-19T13:28:14.521Z,3676
2019-02-19T13:29:22.541Z,3672
2019-02-19T13:30:30.624Z,3672
2019-02-19T13:31:38.677Z,3664
2019-02-19T13:32:46.746Z,3648
2019-02-19T13:33:54.835Z,3632
2019-02-19T13:35:02.859Z,3620
2019-02-19T13:36:10.928Z,3628
2019-02-19T13:37:18.982Z,3632
2019-02-19T13:38:27.055Z,3608
2019-02-19T13:39:35.096Z,3604
2019-02-19T13:40:43.166Z,3604
2019-02-19T13:41:51.218Z,3608
2019-02-19T13:42:59.275Z,3604
2019-02-19T13:44:07.357Z,3612
2019-02-19T13:45:15.413Z,3600
2019-02-19T13:46:23.462Z,3576
2019-02-19T13:47:31.517Z,3564
2019-02-19T13:48:39.667Z,3552
2019-02-19T13:49:47.657Z,3556
2019-02-19T13:50:55.692Z,3568
2019-02-19T13:52:03.767Z,3572
2019-02-19T13:53:11.807Z,3600
2019-02-19T13:54:19.896Z,3664
2019-02-19T13:55:27.979Z,3796
2019-02-19T13:56:36.007Z,3992
2019-02-19T13:57:44.083Z,4236
2019-02-19T13:58:52.129Z,4352
2019-02-19T14:00:00.217Z,4676
2019-02-19T14:01:08.270Z,4736
2019-02-19T14:02:16.323Z,4736
2019-02-19T14:03:24.385Z,4964
2019-02-19T14:04:32.451Z,5168
2019-02-19T14:05:40.498Z,5376
2019-02-19T14:06:48.565Z,5532
2019-02-19T14:07:56.633Z,5640
2019-02-19T14:09:04.686Z,5684
2019-02-19T14:10:12.756Z,5740
2019-02-19T14:11:20.806Z,5788
2019-02-19T14:12:28.942Z,5840
2019-02-19T14:13:36.942Z,5892
2019-02-19T14:14:45.007Z,5968
2019-02-19T14:15:53.058Z,6012
2019-02-19T14:17:01.125Z,5976
2019-02-19T14:18:09.179Z,5840
2019-02-19T14:19:21.309Z,5768
2019-02-19T14:20:25.290Z,5748
2019-02-19T14:21:33.368Z,5700
2019-02-19T14:22:41.435Z,5704
2019-02-19T14:23:49.484Z,5736
2019-02-19T14:24:57.559Z,5784
2019-02-19T14:26:05.616Z,5796
2019-02-19T14:27:13.701Z,5816
2019-02-19T14:28:21.716Z,5816
2019-02-19T14:29:29.804Z,5800
2019-02-19T14:30:37.853Z,5732
2019-02-19T14:31:45.969Z,5712
2019-02-19T14:32:53.992Z,5560
2019-02-19T14:34:02.037Z,5292
2019-02-19T14:35:10.094Z,4852
2019-02-19T14:36:18.174Z,4536
2019-02-19T14:37:26.247Z,4612
2019-02-19T14:38:34.288Z,4904
2019-02-19T14:39:42.384Z,4892
2019-02-19T14:40:50.417Z,4620
2019-02-19T14:41:58.490Z,4476
2019-02-19T14:43:06.562Z,4356
2019-02-19T14:44:14.610Z,4268
2019-02-19T14:45:22.695Z,4148
2019-02-19T14:46:30.742Z,4020
2019-02-19T14:47:38.796Z,3876
2019-02-19T14:48:46.856Z,3912
2019-02-19T14:49:54.930Z,4056
2019-02-19T14:51:02.983Z,4308
2019-02-19T14:52:11.034Z,4296
2019-02-19T14:53:19.096Z,4164
2019-02-19T14:54:27.174Z,3900
2019-02-19T14:55:35.218Z,3472
2019-02-19T14:56:43.284Z,3148
2019-02-19T14:57:51.339Z,2964
2019-02-19T14:58:59.403Z,2976
2019-02-19T15:00:07.485Z,3160
2019-02-19T15:01:15.548Z,3260
2019-02-19T15:02:23.590Z,3320
2019-02-19T15:03:31.662Z,3228
2019-02-19T15:04:39.726Z,3156
2019-02-19T15:05:47.787Z,3008
2019-02-19T15:06:55.853Z,2912
2019-02-19T15:08:03.918Z,2848
2019-02-19T15:09:11.951Z,2784
2019-02-19T15:10:20.027Z,2684
2019-02-19T15:11:28.090Z,2632
2019-02-19T15:12:36.137Z,2560
2019-02-19T15:13:44.221Z,2564
2019-02-19T15:14:52.262Z,2760
2019-02-19T15:16:00.335Z,2740
2019-02-19T15:17:08.394Z,2696
2019-02-19T15:18:16.462Z,2640
2019-02-19T15:19:24.531Z,2600
2019-02-19T15:20:32.571Z,2568
2019-02-19T15:21:40.678Z,2536
2019-02-19T15:22:48.717Z,2476
2019-02-19T15:23:56.782Z,2440
2019-02-19T15:25:04.822Z,2504
2019-02-19T15:26:12.881Z,2452
2019-02-19T15:27:20.951Z,2448
2019-02-19T15:28:28.985Z,2496
2019-02-19T15:29:37.079Z,2536
2019-02-19T15:30:45.138Z,2628
2019-02-19T15:31:53.200Z,2660
2019-02-19T15:33:01.295Z,2696
2019-02-19T15:34:09.308Z,2740
2019-02-19T15:35:17.368Z,2784
2019-02-19T15:36:25.439Z,2824
2019-02-19T15:37:33.486Z,2756
2019-02-19T15:38:41.543Z,2712
2019-02-19T15:39:49.620Z,2756
2019-02-19T15:40:57.672Z,2724
2019-02-19T15:42:05.724Z,2636
2019-02-19T15:43:13.791Z,2572